Time;durP1;ratioP1;P1;durP2;ratioP2;P2;SDS_P1;SDS_P2;PMS_P1;PMS_P2;Temp;Humidity;BMP_temperature;BMP_pressure;BME280_temperature;BME280_humidity;BME280_pressure;Samples;Min_cycle;Max_cycle;Signal;HPM_P1;HPM_P2
2024/02/28 00:04:06;;;;;;;;;;;;;;;5.66;100.00;95454.13;10350741;28;2502;-69
2024/02/28 00:09:09;;;;;;;;;;;;;;;5.60;100.00;95449.84;10351081;28;2227;-65
2024/02/28 00:14:12;;;;;;;;;;;;;;;5.69;100.00;95454.47;10355534;28;2052;-67
2024/02/28 00:19:14;;;;;;;;;;;;;;;5.67;100.00;95453.09;10354099;28;2035;-66
2024/02/28 00:24:17;;;;;;;;;;;;;;;5.59;100.00;95456.19;10355948;28;2057;-65
2024/02/28 00:29:20;;;;;;;;;;;;;;;5.51;100.00;95452.13;10359773;28;1896;-66
2024/02/28 00:34:23;;;;;;;;;;;;;;;5.45;100.00;95452.31;10352673;28;1893;-66
2024/02/28 00:39:25;;;;;;;;;;;;;;;5.51;100.00;95456.66;10346850;28;2144;-64
2024/02/28 00:44:28;;;;;;;;;;;;;;;5.60;100.00;95469.31;10355943;28;1917;-69
2024/02/28 00:49:31;;;;;;;;;;;;;;;5.67;100.00;95475.25;10356854;28;2748;-66
2024/02/28 00:54:34;;;;;;;;;;;;;;;5.70;100.00;95476.59;10356839;28;2049;-66
2024/02/28 00:59:39;;;;;;;;;;;;;;;5.82;100.00;95495.13;10357551;28;1999;-67
2024/02/28 01:04:42;;;;;;;;;;;;;;;5.82;100.00;95506.59;10359661;28;2250;-66
2024/02/28 01:09:45;;;;;;;;;;;;;;;5.81;100.00;95514.88;10372579;28;2336;-67
2024/02/28 01:14:47;;;;;;;;;;;;;;;5.84;100.00;95520.50;10354770;28;2049;-66
2024/02/28 01:19:50;;;;;;;;;;;;;;;5.80;100.00;95526.59;10348697;28;2078;-66
2024/02/28 01:24:53;;;;;;;;;;;;;;;5.80;100.00;95535.41;10355440;28;1886;-65
2024/02/28 01:29:56;;;;;;;;;;;;;;;5.85;100.00;95548.81;10351518;28;2041;-66
2024/02/28 01:34:58;;;;;;;;;;;;;;;5.80;100.00;95556.75;10353163;28;2936;-73
2024/02/28 01:40:01;;;;;;;;;;;;;;;5.87;100.00;95546.69;10351454;28;2122;-68
2024/02/28 01:45:04;;;;;;;;;;;;;;;5.89;100.00;95554.44;10356910;28;2013;-65
2024/02/28 01:50:07;;;;;;;;;;;;;;;5.84;100.00;95552.50;10353999;28;2238;-65
2024/02/28 01:55:10;;;;;;;;;;;;;;;5.77;100.00;95545.75;10363261;28;2133;-66
2024/02/28 02:00:12;;;;;;;;;;;;;;;5.70;100.00;95543.25;10364271;28;2142;-67
2024/02/28 02:05:16;;;;;;;;;;;;;;;5.68;100.00;95540.06;10355112;28;1973;-67
2024/02/28 02:10:19;;;;;;;;;;;;;;;5.61;100.00;95536.75;10358929;28;2097;-71
2024/02/28 02:15:21;;;;;;;;;;;;;;;5.44;100.00;95542.13;10352733;28;2308;-71
2024/02/28 02:20:25;;;;;;;;;;;;;;;5.46;100.00;95547.22;10349448;28;2044;-75
2024/02/28 02:25:27;;;;;;;;;;;;;;;5.32;100.00;95544.09;10352923;28;2053;-70
2024/02/28 02:30:30;;;;;;;;;;;;;;;5.39;100.00;95545.53;10357134;28;2071;-69
2024/02/28 02:35:32;;;;;;;;;;;;;;;5.19;100.00;95544.47;10358481;28;2046;-68
2024/02/28 02:40:36;;;;;;;;;;;;;;;5.21;100.00;95537.81;10363484;28;2109;-68
2024/02/28 02:45:39;;;;;;;;;;;;;;;5.23;100.00;95542.94;10357752;28;2145;-74
2024/02/28 02:50:42;;;;;;;;;;;;;;;5.02;100.00;95544.47;10357551;28;1994;-71
2024/02/28 02:55:44;;;;;;;;;;;;;;;4.89;100.00;95551.75;10360660;28;1992;-66
2024/02/28 03:00:47;;;;;;;;;;;;;;;4.97;100.00;95571.06;10361035;28;2002;-66
2024/02/28 03:05:50;;;;;;;;;;;;;;;4.91;100.00;95564.84;10359988;28;2090;-67
2024/02/28 03:10:54;;;;;;;;;;;;;;;4.76;100.00;95570.72;10362610;28;3374;-68
2024/02/28 03:15:56;;;;;;;;;;;;;;;4.71;100.00;95575.97;10359514;28;2154;-66
2024/02/28 03:20:59;;;;;;;;;;;;;;;4.61;100.00;95575.78;10374995;28;1930;-66
2024/02/28 03:26:03;;;;;;;;;;;;;;;4.43;100.00;95589.31;10357097;28;2129;-65
2024/02/28 03:31:05;;;;;;;;;;;;;;;4.39;100.00;95590.81;10360163;28;2150;-65
2024/02/28 03:36:08;;;;;;;;;;;;;;;4.30;100.00;95601.88;10357264;28;2037;-64
2024/02/28 03:41:11;;;;;;;;;;;;;;;4.26;100.00;95600.75;10359294;28;2336;-68
2024/02/28 03:46:16;;;;;;;;;;;;;;;4.36;100.00;95604.63;10358785;28;2049;-67
2024/02/28 03:51:19;;;;;;;;;;;;;;;4.47;100.00;95609.09;10360975;28;1901;-64
2024/02/28 03:56:23;;;;;;;;;;;;;;;4.48;100.00;95608.03;10354756;28;2745;-65
2024/02/28 04:01:28;;;;;;;;;;;;;;;4.57;100.00;95627.88;10346413;28;1976;-66
2024/02/28 04:06:31;;;;;;;;;;;;;;;4.63;100.00;95623.47;10359243;28;2102;-69
2024/02/28 04:11:33;;;;;;;;;;;;;;;4.67;100.00;95628.09;10360529;28;2105;-65
2024/02/28 04:16:36;;;;;;;;;;;;;;;4.64;100.00;95636.53;10362595;28;2154;-67
2024/02/28 04:21:38;;;;;;;;;;;;;;;4.64;100.00;95649.84;10369047;28;1951;-65
2024/02/28 04:26:41;;;;;;;;;;;;;;;4.78;100.00;95647.72;10353286;28;2003;-66
2024/02/28 04:31:44;;;;;;;;;;;;;;;4.79;100.00;95655.47;10350432;28;1984;-66
2024/02/28 04:36:47;;;;;;;;;;;;;;;4.85;100.00;95662.50;10355980;28;2688;-66
2024/02/28 04:41:50;;;;;;;;;;;;;;;4.84;100.00;95660.06;10353433;28;1937;-67
2024/02/28 04:46:53;;;;;;;;;;;;;;;4.82;100.00;95667.47;10352946;28;2144;-66
2024/02/28 04:51:55;;;;;;;;;;;;;;;4.85;100.00;95659.81;10345010;28;2113;-66
2024/02/28 04:56:59;;;;;;;;;;;;;;;4.91;100.00;95675.91;10348209;28;2081;-66
2024/02/28 05:02:02;;;;;;;;;;;;;;;4.87;100.00;95675.56;10358201;28;2054;-66
2024/02/28 05:07:07;;;;;;;;;;;;;;;4.85;100.00;95683.00;10354578;28;2082;-67
2024/02/28 05:12:12;;;;;;;;;;;;;;;4.95;100.00;95687.69;10352858;28;2090;-74
2024/02/28 05:17:16;;;;;;;;;;;;;;;4.90;100.00;95696.41;10354884;28;2547;-69
2024/02/28 05:22:19;;;;;;;;;;;;;;;4.89;100.00;95698.22;10355742;28;2108;-65
2024/02/28 05:27:23;;;;;;;;;;;;;;;4.85;100.00;95694.44;10353712;28;1997;-66
2024/02/28 05:32:25;;;;;;;;;;;;;;;4.92;100.00;95699.63;10358215;28;2220;-70
2024/02/28 05:37:28;;;;;;;;;;;;;;;4.81;100.00;95708.47;10357902;28;1938;-65
2024/02/28 05:42:32;;;;;;;;;;;;;;;4.87;100.00;95721.66;10347156;28;2069;-67
2024/02/28 05:47:35;;;;;;;;;;;;;;;4.94;100.00;95734.00;10347746;28;2078;-69
2024/02/28 05:52:38;;;;;;;;;;;;;;;5.03;100.00;95737.91;10349356;28;2163;-66
2024/02/28 05:57:41;;;;;;;;;;;;;;;4.96;100.00;95742.56;10349371;28;1958;-67
2024/02/28 06:02:44;;;;;;;;;;;;;;;4.84;100.00;95762.09;10349186;28;2423;-67
2024/02/28 06:07:47;;;;;;;;;;;;;;;5.03;100.00;95764.56;10351479;28;1904;-66
2024/02/28 06:12:53;;;;;;;;;;;;;;;4.89;100.00;95762.16;10345840;28;2240;-67
2024/02/28 06:17:56;;;;;;;;;;;;;;;4.89;100.00;95767.50;10354036;28;2239;-66
2024/02/28 06:23:00;;;;;;;;;;;;;;;5.03;100.00;95780.56;10353309;28;2061;-66
2024/02/28 06:28:17;;;;;;;;;;;;;;;5.04;100.00;95788.28;10352896;28;2185;-69
2024/02/28 06:33:19;;;;;;;;;;;;;;;4.95;100.00;95804.88;10354605;28;1960;-65
2024/02/28 06:38:25;;;;;;;;;;;;;;;4.93;100.00;95806.97;10366975;28;2063;-67
2024/02/28 06:43:28;;;;;;;;;;;;;;;4.97;100.00;95821.47;10342950;28;2037;-65
2024/02/28 06:48:33;;;;;;;;;;;;;;;4.84;100.00;95826.00;10345223;28;1931;-66
2024/02/28 06:53:36;;;;;;;;;;;;;;;4.80;100.00;95824.84;10353358;28;2030;-65
2024/02/28 06:58:39;;;;;;;;;;;;;;;4.81;100.00;95836.31;10348039;28;1981;-68
2024/02/28 07:03:42;;;;;;;;;;;;;;;4.67;100.00;95838.44;10351166;28;2232;-65
2024/02/28 07:08:46;;;;;;;;;;;;;;;4.76;100.00;95845.00;10353000;28;2608;-65
2024/02/28 07:13:50;;;;;;;;;;;;;;;4.83;100.00;95855.53;10371209;28;1982;-67
2024/02/28 07:18:53;;;;;;;;;;;;;;;4.82;100.00;95852.03;10357975;28;2077;-68
2024/02/28 07:23:56;;;;;;;;;;;;;;;4.85;100.00;95853.44;10359889;28;1981;-71
2024/02/28 07:28:59;;;;;;;;;;;;;;;4.86;100.00;95849.75;10348606;28;2134;-67
2024/02/28 07:34:02;;;;;;;;;;;;;;;4.99;100.00;95844.13;10359384;28;2046;-65
2024/02/28 07:39:05;;;;;;;;;;;;;;;5.19;100.00;95841.06;10358774;28;2122;-64
2024/02/28 07:44:08;;;;;;;;;;;;;;;5.29;100.00;95838.59;10360684;28;2007;-65
2024/02/28 07:49:11;;;;;;;;;;;;;;;5.43;100.00;95839.09;10367493;28;2370;-65
2024/02/28 07:54:14;;;;;;;;;;;;;;;5.61;100.00;95840.75;10377945;28;1898;-64
2024/02/28 07:59:17;;;;;;;;;;;;;;;5.38;100.00;95842.47;10361826;28;2278;-67
2024/02/28 08:04:20;;;;;;;;;;;;;;;5.27;100.00;95861.19;10367827;28;2450;-65
2024/02/28 08:09:22;;;;;;;;;;;;;;;5.19;100.00;95858.91;10368302;28;2117;-66
2024/02/28 08:14:28;;;;;;;;;;;;;;;5.10;100.00;95872.59;10363667;28;2153;-67
2024/02/28 08:19:35;;;;;;;;;;;;;;;5.34;100.00;95873.34;10363620;28;2066;-65
2024/02/28 08:24:37;;;;;;;;;;;;;;;5.66;100.00;95859.50;10354447;28;2150;-67
2024/02/28 08:29:50;;;;;;;;;;;;;;;5.85;100.00;95873.41;10356775;28;2278;-65
2024/02/28 08:34:54;;;;;;;;;;;;;;;5.38;100.00;95887.78;10370388;28;2054;-66
2024/02/28 08:39:58;;;;;;;;;;;;;;;5.85;100.00;95882.25;10359789;28;1999;-66
2024/02/28 08:45:03;;;;;;;;;;;;;;;6.06;100.00;95886.09;10355301;28;2025;-71
2024/02/28 08:50:07;;;;;;;;;;;;;;;5.76;100.00;95890.88;10359375;28;1904;-74
2024/02/28 08:55:10;;;;;;;;;;;;;;;5.83;100.00;95891.53;10360374;28;2121;-74
2024/02/28 09:00:13;;;;;;;;;;;;;;;5.72;100.00;95895.88;10359846;28;2106;-66
2024/02/28 09:05:15;;;;;;;;;;;;;;;5.76;100.00;95902.34;10360610;28;1991;-66
2024/02/28 09:10:23;;;;;;;;;;;;;;;5.68;100.00;95902.75;10356044;28;2144;-64
2024/02/28 09:15:26;;;;;;;;;;;;;;;6.00;100.00;95900.41;10357458;28;2074;-65
2024/02/28 09:20:29;;;;;;;;;;;;;;;5.78;100.00;95913.59;10355883;28;2029;-64
2024/02/28 09:25:32;;;;;;;;;;;;;;;5.91;100.00;95923.97;10350581;28;3096;-66
2024/02/28 09:30:35;;;;;;;;;;;;;;;5.93;100.00;95913.09;10354587;28;2018;-67
2024/02/28 09:35:49;;;;;;;;;;;;;;;6.22;100.00;95922.66;10353451;28;2099;-66
2024/02/28 09:40:52;;;;;;;;;;;;;;;6.60;100.00;95917.63;10357157;28;2106;-67
2024/02/28 09:45:56;;;;;;;;;;;;;;;7.10;100.00;95916.72;10348902;28;2077;-66
2024/02/28 09:50:58;;;;;;;;;;;;;;;7.34;100.00;95910.06;10353310;28;1940;-65
2024/02/28 09:56:01;;;;;;;;;;;;;;;7.95;100.00;95909.88;10343110;28;2126;-66
2024/02/28 10:01:04;;;;;;;;;;;;;;;7.78;100.00;95920.72;10372826;28;1985;-66
2024/02/28 10:06:07;;;;;;;;;;;;;;;7.56;100.00;95915.38;10357058;28;2101;-68
2024/02/28 10:11:16;;;;;;;;;;;;;;;7.66;100.00;95917.38;10358291;28;2181;-66
2024/02/28 10:16:19;;;;;;;;;;;;;;;7.67;100.00;95918.97;10354010;28;2780;-65
2024/02/28 10:21:22;;;;;;;;;;;;;;;7.62;100.00;95924.28;10350342;28;2154;-65
2024/02/28 10:26:25;;;;;;;;;;;;;;;7.19;100.00;95931.25;10350905;28;2115;-64
2024/02/28 10:31:30;;;;;;;;;;;;;;;7.02;100.00;95932.13;10346717;28;2341;-64
2024/02/28 10:36:33;;;;;;;;;;;;;;;6.95;100.00;95936.84;10364118;28;1912;-65
2024/02/28 10:41:36;;;;;;;;;;;;;;;7.17;100.00;95936.84;10358618;28;1945;-65
2024/02/28 10:46:39;;;;;;;;;;;;;;;6.97;100.00;95937.41;10353866;28;2113;-65
2024/02/28 10:51:42;;;;;;;;;;;;;;;7.48;100.00;95945.25;10351679;28;2103;-66
2024/02/28 10:56:44;;;;;;;;;;;;;;;7.56;100.00;95932.25;10361518;28;2308;-65
2024/02/28 11:01:47;;;;;;;;;;;;;;;7.37;100.00;95938.16;10367074;28;2038;-63
2024/02/28 11:06:51;;;;;;;;;;;;;;;7.22;100.00;95946.81;10356769;28;1978;-65
2024/02/28 11:11:55;;;;;;;;;;;;;;;7.09;100.00;95944.50;10358274;28;2103;-66
2024/02/28 11:16:59;;;;;;;;;;;;;;;7.00;100.00;95950.28;10359684;28;1931;-64
2024/02/28 11:22:03;;;;;;;;;;;;;;;6.93;100.00;95959.50;10358832;28;2280;-65
2024/02/28 11:27:06;;;;;;;;;;;;;;;6.86;100.00;95959.69;10372319;28;2100;-65
2024/02/28 11:32:10;;;;;;;;;;;;;;;7.15;100.00;95962.22;10353499;28;2042;-65
2024/02/28 11:37:13;;;;;;;;;;;;;;;6.97;100.00;95958.78;10359908;28;2069;-65
2024/02/28 11:42:16;;;;;;;;;;;;;;;6.80;100.00;95963.31;10351929;28;2432;-65
2024/02/28 11:47:19;;;;;;;;;;;;;;;6.83;100.00;95962.84;10362210;28;2082;-65
2024/02/28 11:52:21;;;;;;;;;;;;;;;6.57;100.00;95968.88;10355630;28;2090;-68
2024/02/28 11:57:24;;;;;;;;;;;;;;;6.32;100.00;95967.41;10358262;28;2085;-70
2024/02/28 12:02:28;;;;;;;;;;;;;;;6.27;100.00;95971.84;10363308;28;2003;-68
2024/02/28 12:07:31;;;;;;;;;;;;;;;6.41;100.00;95967.78;10353364;28;2170;-66
2024/02/28 12:12:33;;;;;;;;;;;;;;;6.46;100.00;95966.03;10359415;28;2129;-65
2024/02/28 12:17:36;;;;;;;;;;;;;;;6.55;100.00;95965.63;10363982;28;2022;-68
2024/02/28 12:22:39;;;;;;;;;;;;;;;6.65;100.00;95965.78;10356683;28;2126;-65
2024/02/28 12:27:42;;;;;;;;;;;;;;;6.66;100.00;95970.06;10358430;28;2110;-64
2024/02/28 12:32:44;;;;;;;;;;;;;;;6.39;100.00;95962.72;10357136;28;2471;-65
2024/02/28 12:37:48;;;;;;;;;;;;;;;6.52;100.00;95968.78;10353452;28;2054;-64
2024/02/28 12:42:51;;;;;;;;;;;;;;;6.89;100.00;95961.06;10359259;28;2036;-64
2024/02/28 12:47:56;;;;;;;;;;;;;;;6.83;100.00;95954.84;10357014;28;2074;-64
2024/02/28 12:53:01;;;;;;;;;;;;;;;7.29;100.00;95958.94;10364895;28;2192;-65
2024/02/28 12:58:05;;;;;;;;;;;;;;;7.09;100.00;95952.53;10358057;28;2197;-64
2024/02/28 13:03:08;;;;;;;;;;;;;;;6.65;100.00;95958.56;10369599;28;1999;-64
2024/02/28 13:08:11;;;;;;;;;;;;;;;6.70;100.00;95960.53;10360763;28;1986;-64
2024/02/28 13:13:14;;;;;;;;;;;;;;;6.81;100.00;95964.13;10368061;28;2006;-64
2024/02/28 13:18:16;;;;;;;;;;;;;;;7.10;100.00;95965.63;10360593;28;2465;-65
2024/02/28 13:23:19;;;;;;;;;;;;;;;7.11;100.00;95955.75;10357988;28;2058;-71
2024/02/28 13:28:29;;;;;;;;;;;;;;;6.99;100.00;95953.97;10359308;28;2121;-65
2024/02/28 13:33:31;;;;;;;;;;;;;;;6.98;100.00;95963.06;10366147;28;2149;-66
2024/02/28 13:38:35;;;;;;;;;;;;;;;7.08;100.00;95961.59;10359513;28;2149;-64
2024/02/28 13:43:38;;;;;;;;;;;;;;;7.07;100.00;95965.34;10358510;28;2103;-65
2024/02/28 13:48:41;;;;;;;;;;;;;;;7.10;100.00;95959.47;10356101;28;2090;-66
2024/02/28 13:53:44;;;;;;;;;;;;;;;6.73;100.00;95966.16;10361812;28;2200;-65
2024/02/28 13:58:47;;;;;;;;;;;;;;;6.79;100.00;95969.72;10356014;28;2258;-66
2024/02/28 14:03:55;;;;;;;;;;;;;;;6.81;100.00;95967.66;10354218;28;2046;-63
2024/02/28 14:08:59;;;;;;;;;;;;;;;6.57;100.00;95972.34;10346687;28;2030;-64
2024/02/28 14:14:02;;;;;;;;;;;;;;;6.68;100.00;95973.28;10348841;28;2165;-63
2024/02/28 14:19:05;;;;;;;;;;;;;;;6.72;100.00;95971.75;10347261;28;2154;-64
2024/02/28 14:24:07;;;;;;;;;;;;;;;7.09;100.00;95973.91;10347876;28;2024;-66
2024/02/28 14:29:10;;;;;;;;;;;;;;;7.07;100.00;95984.03;10359312;28;2065;-66
2024/02/28 14:34:13;;;;;;;;;;;;;;;6.91;100.00;95985.69;10371249;28;2127;-71
2024/02/28 14:39:15;;;;;;;;;;;;;;;6.78;100.00;95990.28;10362865;28;2403;-66
2024/02/28 14:44:19;;;;;;;;;;;;;;;6.98;100.00;95992.47;10377222;28;1944;-66
2024/02/28 14:49:22;;;;;;;;;;;;;;;6.73;100.00;95992.06;10359620;28;2066;-68
2024/02/28 14:54:26;;;;;;;;;;;;;;;6.76;100.00;95988.94;10368515;28;1945;-70
2024/02/28 14:59:29;;;;;;;;;;;;;;;6.66;100.00;95992.25;10363240;28;2059;-66
2024/02/28 15:04:32;;;;;;;;;;;;;;;6.65;100.00;95998.66;10363988;28;2073;-66
2024/02/28 15:09:35;;;;;;;;;;;;;;;6.53;100.00;95999.78;10361657;28;1920;-65
2024/02/28 15:14:42;;;;;;;;;;;;;;;6.44;100.00;95994.84;10379857;28;1908;-65
2024/02/28 15:19:45;;;;;;;;;;;;;;;6.77;100.00;95994.03;10369157;28;2224;-69
2024/02/28 15:24:47;;;;;;;;;;;;;;;6.60;100.00;95987.88;10362323;28;2434;-65
2024/02/28 15:29:51;;;;;;;;;;;;;;;6.62;100.00;95995.66;10358916;28;2018;-71
2024/02/28 15:34:54;;;;;;;;;;;;;;;6.61;100.00;95988.69;10359901;28;2054;-78
2024/02/28 15:39:57;;;;;;;;;;;;;;;6.68;100.00;95990.16;10356167;28;2149;-64
2024/02/28 15:45:00;;;;;;;;;;;;;;;6.83;100.00;95989.56;10356468;28;2156;-69
2024/02/28 15:50:02;;;;;;;;;;;;;;;6.76;100.00;95987.06;10358879;28;2070;-66
2024/02/28 15:55:06;;;;;;;;;;;;;;;6.80;100.00;95994.59;10371377;28;1955;-65
2024/02/28 16:00:09;;;;;;;;;;;;;;;6.67;100.00;95999.19;10373843;28;2054;-68
2024/02/28 16:05:13;;;;;;;;;;;;;;;6.82;100.00;95995.16;10356795;28;2041;-64
2024/02/28 16:10:16;;;;;;;;;;;;;;;6.62;100.00;96001.00;10361448;28;1883;-65
2024/02/28 16:15:19;;;;;;;;;;;;;;;6.65;100.00;96001.31;10359791;28;2054;-65
2024/02/28 16:20:24;;;;;;;;;;;;;;;6.57;100.00;95996.38;10357628;28;2457;-65
2024/02/28 16:25:29;;;;;;;;;;;;;;;6.60;100.00;96003.91;10355069;28;1978;-64
2024/02/28 16:30:31;;;;;;;;;;;;;;;6.42;100.00;96002.25;10372707;28;2018;-64
2024/02/28 16:35:34;;;;;;;;;;;;;;;6.32;100.00;96002.09;10361383;28;2060;-65
2024/02/28 16:40:37;;;;;;;;;;;;;;;6.28;100.00;96014.31;10358814;28;2075;-73
2024/02/28 16:45:39;;;;;;;;;;;;;;;6.36;100.00;96005.94;10352259;28;2199;-69
2024/02/28 16:50:42;;;;;;;;;;;;;;;6.33;100.00;96010.94;10350637;28;2057;-65
2024/02/28 16:55:45;;;;;;;;;;;;;;;6.31;100.00;96008.50;10357139;28;1989;-65
2024/02/28 17:00:49;;;;;;;;;;;;;;;5.94;100.00;96010.75;10356214;28;2430;-66
2024/02/28 17:05:51;;;;;;;;;;;;;;;5.75;100.00;96025.31;10356762;28;2043;-65
2024/02/28 17:10:54;;;;;;;;;;;;;;;5.67;100.00;96029.97;10357696;28;2078;-67
2024/02/28 17:16:02;;;;;;;;;;;;;;;5.65;100.00;96037.38;10360399;28;1927;-67
2024/02/28 17:21:06;;;;;;;;;;;;;;;5.60;100.00;96042.63;10357426;28;2033;-65
2024/02/28 17:26:09;;;;;;;;;;;;;;;5.36;100.00;96057.03;10351830;28;2262;-65
2024/02/28 17:31:12;;;;;;;;;;;;;;;5.40;100.00;96053.66;10354161;28;2062;-64
2024/02/28 17:36:15;;;;;;;;;;;;;;;5.47;100.00;96048.22;10351324;28;2200;-65
2024/02/28 17:41:18;;;;;;;;;;;;;;;5.49;100.00;96051.44;10355679;28;2062;-64
2024/02/28 17:46:21;;;;;;;;;;;;;;;5.50;100.00;96053.06;10351011;28;2400;-64
2024/02/28 17:51:24;;;;;;;;;;;;;;;5.40;100.00;96064.31;10340885;28;2420;-66
2024/02/28 17:56:26;;;;;;;;;;;;;;;5.41;100.00;96060.63;10343534;28;2130;-65
2024/02/28 18:01:31;;;;;;;;;;;;;;;5.43;100.00;96057.72;10357791;28;1988;-65
2024/02/28 18:06:34;;;;;;;;;;;;;;;5.39;100.00;96057.34;10355001;28;2136;-65
2024/02/28 18:11:39;;;;;;;;;;;;;;;5.37;100.00;96063.97;10359062;28;2199;-70
2024/02/28 18:16:42;;;;;;;;;;;;;;;5.65;100.00;96060.56;10353869;28;2035;-70
2024/02/28 18:21:45;;;;;;;;;;;;;;;5.61;100.00;96046.09;10354122;28;1972;-69
2024/02/28 18:26:48;;;;;;;;;;;;;;;5.46;100.00;96040.44;10345914;28;2046;-70
2024/02/28 18:31:50;;;;;;;;;;;;;;;5.37;100.00;96048.00;10349448;28;2001;-70
2024/02/28 18:36:53;;;;;;;;;;;;;;;5.31;100.00;96052.41;10355251;28;2007;-70
2024/02/28 18:41:58;;;;;;;;;;;;;;;5.29;100.00;96056.34;10354918;28;2387;-69
2024/02/28 18:47:03;;;;;;;;;;;;;;;5.39;100.00;96052.03;10355593;28;2041;-69
2024/02/28 18:52:05;;;;;;;;;;;;;;;5.38;100.00;96045.09;10350432;28;2062;-72
2024/02/28 18:57:08;;;;;;;;;;;;;;;5.36;100.00;96049.03;10353662;28;2002;-71
2024/02/28 19:02:11;;;;;;;;;;;;;;;5.34;100.00;96051.94;10355104;28;2150;-67
2024/02/28 19:07:13;;;;;;;;;;;;;;;5.29;100.00;96051.03;10353834;28;1825;-67
2024/02/28 19:12:16;;;;;;;;;;;;;;;5.13;100.00;96047.19;10348064;28;2390;-66
2024/02/28 19:17:19;;;;;;;;;;;;;;;5.19;100.00;96056.13;10354003;28;2035;-65
2024/02/28 19:22:22;;;;;;;;;;;;;;;5.09;100.00;96046.03;10360411;28;1981;-64
2024/02/28 19:27:25;;;;;;;;;;;;;;;5.15;100.00;96051.25;10356633;28;2343;-64
2024/02/28 19:32:29;;;;;;;;;;;;;;;5.15;100.00;96039.75;10369916;28;1782;-65
2024/02/28 19:37:32;;;;;;;;;;;;;;;5.07;100.00;96040.13;10358980;28;1724;-64
2024/02/28 19:42:34;;;;;;;;;;;;;;;5.03;100.00;96046.97;10367604;28;1918;-65
2024/02/28 19:47:37;;;;;;;;;;;;;;;5.07;100.00;96056.09;10361024;28;1945;-65
2024/02/28 19:52:41;;;;;;;;;;;;;;;5.05;100.00;96052.88;10355919;28;1809;-64
2024/02/28 19:57:44;;;;;;;;;;;;;;;5.07;100.00;96053.44;10367372;28;1740;-66
2024/02/28 20:02:47;;;;;;;;;;;;;;;5.17;100.00;96050.22;10362684;28;1966;-65
2024/02/28 20:07:50;;;;;;;;;;;;;;;5.13;100.00;96049.84;10361013;28;1991;-64
2024/02/28 20:12:54;;;;;;;;;;;;;;;5.04;100.00;96053.91;10364023;28;1975;-64
2024/02/28 20:17:58;;;;;;;;;;;;;;;5.13;100.00;96055.19;10373859;28;2328;-64
2024/02/28 20:23:00;;;;;;;;;;;;;;;5.14;100.00;96048.81;10360116;28;1930;-65
2024/02/28 20:28:06;;;;;;;;;;;;;;;5.12;100.00;96051.72;10360623;28;1752;-65
2024/02/28 20:33:09;;;;;;;;;;;;;;;5.18;100.00;96051.81;10361839;28;1952;-64
2024/02/28 20:38:14;;;;;;;;;;;;;;;5.13;100.00;96052.50;10361970;28;1768;-65
2024/02/28 20:43:16;;;;;;;;;;;;;;;5.05;100.00;96055.53;10360220;28;1974;-64
2024/02/28 20:48:20;;;;;;;;;;;;;;;5.11;100.00;96055.41;10361456;28;1713;-65
2024/02/28 20:53:24;;;;;;;;;;;;;;;5.19;100.00;96051.59;10367808;28;1881;-65
2024/02/28 20:58:27;;;;;;;;;;;;;;;5.17;100.00;96047.53;10356592;28;2308;-65
2024/02/28 21:03:30;;;;;;;;;;;;;;;5.09;100.00;96041.53;10352590;28;2085;-64
2024/02/28 21:08:36;;;;;;;;;;;;;;;5.17;100.00;96043.03;10351674;28;2011;-63
2024/02/28 21:13:38;;;;;;;;;;;;;;;5.10;100.00;96037.00;10350350;28;2024;-64
2024/02/28 21:18:41;;;;;;;;;;;;;;;5.02;100.00;96029.34;10353526;28;2090;-64
2024/02/28 21:23:47;;;;;;;;;;;;;;;5.06;100.00;96033.19;10354592;28;2053;-73
2024/02/28 21:28:49;;;;;;;;;;;;;;;5.08;100.00;96031.06;10349859;28;2125;-69
2024/02/28 21:33:52;;;;;;;;;;;;;;;5.02;100.00;96030.16;10351775;28;2113;-69
2024/02/28 21:38:55;;;;;;;;;;;;;;;5.09;100.00;96032.69;10356995;28;2030;-65
2024/02/28 21:43:58;;;;;;;;;;;;;;;4.99;100.00;96035.16;10351500;28;2429;-65
2024/02/28 21:49:01;;;;;;;;;;;;;;;5.07;100.00;96032.13;10352944;28;1952;-66
2024/02/28 21:54:14;;;;;;;;;;;;;;;4.98;100.00;96015.69;10352440;28;2180;-67
2024/02/28 21:59:17;;;;;;;;;;;;;;;4.86;100.00;96015.69;10357427;28;2233;-65
2024/02/28 22:04:20;;;;;;;;;;;;;;;4.86;100.00;96014.88;10359766;28;1977;-68
2024/02/28 22:09:23;;;;;;;;;;;;;;;4.87;100.00;96011.97;10356783;28;1885;-65
2024/02/28 22:14:26;;;;;;;;;;;;;;;4.83;100.00;96008.13;10356550;28;1909;-64
2024/02/28 22:19:29;;;;;;;;;;;;;;;4.78;100.00;96008.06;10350130;28;2030;-65
2024/02/28 22:24:32;;;;;;;;;;;;;;;4.74;100.00;96012.22;10354644;28;2073;-66
2024/02/28 22:29:35;;;;;;;;;;;;;;;4.74;100.00;95995.41;10353791;28;2025;-65
2024/02/28 22:34:38;;;;;;;;;;;;;;;4.85;100.00;95991.94;10354814;28;2042;-65
2024/02/28 22:39:41;;;;;;;;;;;;;;;4.76;100.00;95991.47;10352274;28;2455;-66
2024/02/28 22:44:44;;;;;;;;;;;;;;;4.74;100.00;95998.09;10356137;28;2141;-65
2024/02/28 22:49:47;;;;;;;;;;;;;;;4.72;100.00;95989.53;10356606;28;2021;-66
2024/02/28 22:54:50;;;;;;;;;;;;;;;4.71;100.00;95979.88;10360197;28;2183;-70
2024/02/28 22:59:53;;;;;;;;;;;;;;;4.72;100.00;95977.00;10355791;28;1893;-74
2024/02/28 23:04:55;;;;;;;;;;;;;;;4.74;100.00;95976.78;10366264;28;2281;-74
2024/02/28 23:09:58;;;;;;;;;;;;;;;4.66;100.00;95956.63;10369671;28;2024;-65
2024/02/28 23:15:01;;;;;;;;;;;;;;;4.63;100.00;95967.72;10356098;28;2018;-64
2024/02/28 23:20:05;;;;;;;;;;;;;;;4.62;100.00;95958.13;10354719;28;2010;-66
2024/02/28 23:25:07;;;;;;;;;;;;;;;4.75;100.00;95959.75;10366247;28;2433;-64
2024/02/28 23:30:10;;;;;;;;;;;;;;;4.68;100.00;95972.38;10359421;28;2150;-65
2024/02/28 23:35:13;;;;;;;;;;;;;;;4.62;100.00;95971.44;10356849;28;2043;-65
2024/02/28 23:40:16;;;;;;;;;;;;;;;4.55;100.00;95960.91;10361594;28;2027;-64
2024/02/28 23:45:18;;;;;;;;;;;;;;;4.53;100.00;95952.34;10365309;28;1914;-65
2024/02/28 23:50:21;;;;;;;;;;;;;;;4.54;100.00;95947.84;10361125;28;2078;-66
2024/02/28 23:55:23;;;;;;;;;;;;;;;4.62;100.00;95950.16;10355800;28;1941;-64
